Stratford, Connecticut
Current Conditions -  °F | °C
As of 3:52 AM on Thursday 27 Nov 2014 (Local Time) from KBDR Reporting Station
Overcast Overcast  
Wind Chill: 28°   Ceiling: 5000
Heat Index: 35°   Visibility: 10mi
Dew Point: 29°   Wind: 9mph
Humidity: 78%   Direction: 310°NW
Pressure: 29.88"   Gusts: NA
Location:  41.2°N, 73.13°W
Report Text: KBDR 270852Z 31008KT 10SM BKN050 OVC080 02/M02 A2988 RMK AO2 SLP117 T00171017 51030
Loading
Personal Weather Stations






























Interactive Weather Map New forecast layout! Learn more

10-Day Weather Forecast

Advertisements
Track Severe Weather on mobile